IVAO ES Tour IFR-A 2013 Etapa 14

IVAO ES Tour IFR-A 2013 Etapa 14

Valencia ( LEVC ) – Vigo ( LEVX )

Datos generales del vuelo
 Fecha 04-12-2013  Avión  B737-800 winglets
 Ruta CENTA A33 PRADO UN733 BARKO  Nivel de vuelo FL360
 Origen LEVC  Destino LEVX
 Velocidad M0.785  Distancia 425Nm
 Distancia real 400Nm ETE 01:05
 ETA 20:05Z  FOB 02:45
 Hora salida 19:00Z Hora llegada 20:05Z
 Pax 160 TOW 68189Kg
 MTOW  78471Kg Fuel 7519Kg
 Fuel utilizado Kg ZFW 60670Kg
Peso carga 7901Kg Peso pasaje 11356Kg
V1 131Knots Vr 141Knots
 V2 150Knots  Vref 148Knots
 Velocidad vertical toma
216,9 ft/m  

 

Datos LEVC

Metar: LEVC 041800Z 00000KT CAVOK 13/09 Q1027 NOSIG
Pista Activa:  30
Salida: CENTA5A

Datos LESA

Metar: LEVX 042000Z 00000KT CAVOK 07/02 Q1029 NOSIG
Pista Activa: 20
Llegada: BARKO2L
App:  ILS Z 20 transición BIRMI

 

 

IVAO ES Tour IFR-A 2013 Etapa 13

IVAO ES Tour IFR-A 2013 Etapa 13

Salamanca ( LESA ) – Valencia ( LEVC )

Datos generales del vuelo
 Fecha 03-12-2013  Avión  B737-800 winglets
 Ruta MINVI UL155 NVS UM191 PDT UM871 NANDO UL150 ASTRO  Nivel de vuelo FL350
 Origen LESA  Destino LEVC
 Velocidad M0.787  Distancia 315Nm
 Distancia real 297Nm ETE 00:55
 ETA 16:55Z  FOB 02:45
 Hora salida 16:05Z Hora llegada 16:55Z
 Pax 7 TOW 56839Kg
 MTOW  78471Kg Fuel 6344Kg
 Fuel utilizado 5100Kg ZFW 50494Kg
Peso carga 8608Kg Peso pasaje 473Kg
V1 116Knots Vr 126Knots
 V2 138Knots  Vref 149Knots
 Velocidad vertical toma
133,5 ft/m  

 

Datos LESA

Metar: LESA 031530Z 02004KT 330V060 CAVOK 09/M01 Q1025
Pista Activa:  21
Salida: VFR

Datos LEVC

Metar: LEVC 031600Z 08005KT 9999 SCT035 SCT050 15/09 Q1026 NOSIG
Pista Activa: 12
Llegada: ASTRO3J
App:  ILS Z 12 transición OPERA